Time;durP1;ratioP1;P1;durP2;ratioP2;P2;SDS_P1;SDS_P2;PMS_P1;PMS_P2;Temp;Humidity;BMP_temperature;BMP_pressure;BME280_temperature;BME280_humidity;BME280_pressure;Samples;Min_cycle;Max_cycle;Signal;HPM_P1;HPM_P2
2022/10/31 00:01:17;;;;;;;17.52;10.98;;;17.40;99.90;;;;;;5046223;28;20722;-75
2022/10/31 00:03:44;;;;;;;20.13;11.93;;;17.30;99.90;;;;;;5035724;28;20229;-75
2022/10/31 00:06:12;;;;;;;18.20;11.43;;;17.30;99.90;;;;;;5051686;28;20194;-75
2022/10/31 00:08:39;;;;;;;17.20;11.50;;;17.20;99.90;;;;;;5048548;28;20205;-75
2022/10/31 00:11:09;;;;;;;17.23;11.68;;;17.10;99.90;;;;;;5036550;28;20198;-75
2022/10/31 00:13:38;;;;;;;13.57;10.60;;;17.20;99.90;;;;;;5044121;28;20232;-75
2022/10/31 00:16:13;;;;;;;20.98;12.20;;;17.20;99.90;;;;;;5047189;28;20198;-75
2022/10/31 00:18:40;;;;;;;17.02;11.23;;;17.20;99.90;;;;;;5040150;28;20190;-75
2022/10/31 00:21:08;;;;;;;14.75;11.10;;;17.10;99.90;;;;;;5051289;28;20198;-75
2022/10/31 00:23:35;;;;;;;15.50;11.27;;;17.20;99.90;;;;;;5058380;28;20604;-75
2022/10/31 00:26:04;;;;;;;16.35;10.77;;;17.10;99.90;;;;;;5052413;28;20210;-75
2022/10/31 00:28:32;;;;;;;18.05;10.98;;;17.20;99.90;;;;;;5048973;28;20201;-75
2022/10/31 00:31:01;;;;;;;14.70;10.15;;;17.30;99.90;;;;;;5054239;28;20202;-75
2022/10/31 00:33:29;;;;;;;15.98;11.15;;;17.40;99.90;;;;;;5054233;28;20222;-75
2022/10/31 00:35:57;;;;;;;19.02;10.90;;;17.40;99.90;;;;;;5053687;28;20217;-75
2022/10/31 00:38:24;;;;;;;17.45;9.93;;;17.30;99.90;;;;;;5049344;28;20699;-75
2022/10/31 00:40:52;;;;;;;15.85;10.05;;;17.30;99.90;;;;;;5053153;28;20212;-75
2022/10/31 00:43:19;;;;;;;14.80;10.45;;;17.30;99.90;;;;;;5046553;28;20733;-75
2022/10/31 00:45:47;;;;;;;18.88;10.77;;;17.30;99.90;;;;;;5038054;28;20225;-75
2022/10/31 00:48:16;;;;;;;14.43;10.55;;;17.40;99.90;;;;;;5050617;28;20199;-75
2022/10/31 00:50:43;;;;;;;13.30;10.10;;;17.30;99.90;;;;;;5043824;28;20202;-75
2022/10/31 00:53:11;;;;;;;18.42;10.50;;;17.30;99.90;;;;;;5050579;28;20226;-75
2022/10/31 00:55:38;;;;;;;18.05;10.68;;;17.30;99.90;;;;;;5048567;28;20194;-75
2022/10/31 00:58:06;;;;;;;13.63;10.07;;;17.30;99.90;;;;;;5052445;28;20198;-75
2022/10/31 01:00:34;;;;;;;13.52;10.32;;;17.10;99.90;;;;;;5048228;28;20206;-75
2022/10/31 01:03:02;;;;;;;14.75;9.77;;;17.20;99.90;;;;;;5051547;28;20218;-75
2022/10/31 01:05:31;;;;;;;15.30;10.70;;;17.10;99.90;;;;;;5047116;28;20186;-75
2022/10/31 01:07:59;;;;;;;15.60;9.13;;;17.10;99.90;;;;;;5054204;28;20201;-75
2022/10/31 01:10:28;;;;;;;17.35;10.85;;;17.10;99.90;;;;;;5042217;28;20649;-75
2022/10/31 01:12:55;;;;;;;18.73;11.68;;;17.10;99.90;;;;;;5044269;28;20209;-75
2022/10/31 01:15:23;;;;;;;16.80;12.35;;;17.00;99.90;;;;;;5056177;28;20211;-75
2022/10/31 01:17:51;;;;;;;19.90;11.63;;;17.00;99.90;;;;;;5049497;28;20201;-75
2022/10/31 01:20:19;;;;;;;20.98;11.73;;;17.00;99.90;;;;;;5052089;28;20211;-75
2022/10/31 01:23:19;;;;;;;14.60;10.63;;;17.00;99.90;;;;;;5046473;28;20210;-75
2022/10/31 01:25:47;;;;;;;14.43;10.13;;;17.10;99.90;;;;;;5048919;28;20202;-75
2022/10/31 01:28:15;;;;;;;18.65;10.63;;;17.00;99.90;;;;;;5062210;28;20197;-75
2022/10/31 01:30:43;;;;;;;13.48;9.93;;;17.00;99.90;;;;;;5049835;28;20222;-75
2022/10/31 01:33:10;;;;;;;14.07;9.80;;;16.90;99.90;;;;;;5043690;28;20234;-75
2022/10/31 01:35:38;;;;;;;12.43;9.52;;;16.70;99.90;;;;;;5047900;28;20210;-75
2022/10/31 01:38:05;;;;;;;16.65;11.38;;;16.90;99.90;;;;;;5052375;28;20206;-75
2022/10/31 01:40:34;;;;;;;14.43;10.05;;;16.90;99.90;;;;;;5051628;28;20197;-75
2022/10/31 01:43:01;;;;;;;16.35;10.93;;;17.00;99.90;;;;;;5049544;28;20236;-75
2022/10/31 01:45:28;;;;;;;15.82;11.27;;;17.10;99.90;;;;;;5044973;28;20198;-75
2022/10/31 01:47:56;;;;;;;17.73;11.65;;;17.00;99.90;;;;;;5039795;28;20202;-75
2022/10/31 01:50:30;;;;;;;15.85;11.27;;;16.90;99.90;;;;;;5052341;28;20186;-75
2022/10/31 01:52:59;;;;;;;16.08;11.23;;;16.90;99.90;;;;;;5050380;28;20571;-75
2022/10/31 01:55:29;;;;;;;18.40;10.57;;;16.80;99.90;;;;;;5041990;28;20209;-75
2022/10/31 01:58:02;;;;;;;16.58;10.70;;;17.00;99.90;;;;;;5053068;28;20206;-75
2022/10/31 02:00:30;;;;;;;18.45;11.15;;;17.10;99.90;;;;;;5047710;28;20203;-75
2022/10/31 02:02:59;;;;;;;16.17;10.57;;;17.10;99.90;;;;;;5051585;28;20206;-75
2022/10/31 02:05:29;;;;;;;16.10;11.27;;;16.90;99.90;;;;;;5050175;28;20202;-75
2022/10/31 02:08:01;;;;;;;18.75;10.77;;;16.90;99.90;;;;;;5046093;28;20214;-75
2022/10/31 02:10:33;;;;;;;14.88;11.07;;;16.90;99.90;;;;;;5051325;28;20186;-75
2022/10/31 02:13:04;;;;;;;14.68;10.15;;;17.00;99.90;;;;;;5051921;28;20222;-75
2022/10/31 02:15:33;;;;;;;15.32;10.50;;;17.00;99.90;;;;;;5038083;28;20215;-75
2022/10/31 02:18:01;;;;;;;15.70;10.15;;;17.00;99.90;;;;;;5045618;28;20198;-75
2022/10/31 02:20:33;;;;;;;16.70;10.70;;;16.90;99.90;;;;;;5051820;28;20198;-75
2022/10/31 02:23:32;;;;;;;12.75;9.82;;;16.90;99.90;;;;;;5052052;28;20222;-75
2022/10/31 02:26:29;;;;;;;14.27;10.88;;;16.90;99.90;;;;;;5049801;28;20220;-75
2022/10/31 02:29:43;;;;;;;18.45;10.48;;;16.90;99.90;;;;;;5048710;28;20198;-75
2022/10/31 02:32:21;;;;;;;16.27;10.23;;;16.70;99.90;;;;;;5048357;28;20201;-75
2022/10/31 02:34:58;;;;;;;16.58;10.13;;;16.60;99.90;;;;;;5051378;28;20700;-75
2022/10/31 02:37:31;;;;;;;15.82;10.48;;;16.60;99.90;;;;;;5050584;28;20204;-75
2022/10/31 02:40:05;;;;;;;15.60;9.85;;;16.60;99.90;;;;;;5051516;28;20698;-75
2022/10/31 02:43:00;;;;;;;16.33;10.18;;;16.50;99.90;;;;;;5048179;28;20187;-75
2022/10/31 02:45:31;;;;;;;14.38;10.38;;;16.60;99.90;;;;;;5050621;28;20190;-75
2022/10/31 02:48:09;;;;;;;17.90;11.20;;;16.60;99.90;;;;;;5050993;28;20206;-75
2022/10/31 02:50:41;;;;;;;15.82;10.77;;;16.60;99.90;;;;;;5051531;28;20223;-75
2022/10/31 02:53:10;;;;;;;14.30;10.10;;;16.50;99.90;;;;;;5048041;28;20591;-75
2022/10/31 02:55:57;;;;;;;16.23;11.00;;;16.40;99.90;;;;;;5049368;28;20215;-75
2022/10/31 02:58:28;;;;;;;16.42;10.60;;;16.40;99.90;;;;;;5045637;28;20575;-75
2022/10/31 03:01:29;;;;;;;12.32;9.60;;;16.50;99.90;;;;;;5047753;28;20194;-75
2022/10/31 03:04:26;;;;;;;19.05;13.27;;;16.50;99.90;;;;;;5002775;28;20229;-75
2022/10/31 03:06:59;;;;;;;17.73;10.52;;;16.40;99.90;;;;;;5041104;28;20202;-75
2022/10/31 03:09:33;;;;;;;15.05;10.63;;;16.20;99.90;;;;;;5050944;28;20552;-75
2022/10/31 03:12:07;;;;;;;13.60;9.95;;;16.20;99.90;;;;;;5049442;28;20201;-75
2022/10/31 03:14:42;;;;;;;15.95;11.30;;;16.20;99.90;;;;;;5038537;28;20211;-75
2022/10/31 03:17:16;;;;;;;14.60;10.77;;;16.20;99.90;;;;;;5050479;28;20202;-75
2022/10/31 03:19:49;;;;;;;14.05;10.02;;;16.20;99.90;;;;;;5050170;28;20212;-75
2022/10/31 03:22:20;;;;;;;14.65;10.25;;;16.30;99.90;;;;;;5050526;28;20640;-75
2022/10/31 03:24:48;;;;;;;10.93;8.75;;;16.30;99.90;;;;;;5051001;28;20221;-75
2022/10/31 03:27:23;;;;;;;14.57;11.13;;;16.30;99.90;;;;;;5056365;28;20199;-75
2022/10/31 03:29:54;;;;;;;16.90;9.93;;;16.40;99.90;;;;;;5035103;28;20191;-75
2022/10/31 03:32:27;;;;;;;17.88;10.95;;;16.50;99.90;;;;;;5049773;28;20667;-75
2022/10/31 03:35:00;;;;;;;13.52;11.07;;;16.40;99.90;;;;;;5061808;23;20222;-77
2022/10/31 03:37:33;;;;;;;14.80;10.25;;;16.30;99.90;;;;;;5046695;28;20205;-77
2022/10/31 03:40:03;;;;;;;19.17;10.32;;;16.30;99.90;;;;;;5066118;28;20202;-77
2022/10/31 03:42:34;;;;;;;14.07;10.30;;;16.20;99.90;;;;;;5043424;28;20201;-77
2022/10/31 03:45:07;;;;;;;14.27;9.60;;;16.20;99.90;;;;;;5033120;28;20219;-77
2022/10/31 03:47:35;;;;;;;15.68;9.65;;;16.10;99.90;;;;;;5044896;28;20202;-77
2022/10/31 03:50:05;;;;;;;14.23;9.50;;;15.80;99.90;;;;;;5051000;28;20206;-77
2022/10/31 03:52:40;;;;;;;14.50;9.77;;;15.70;99.90;;;;;;5048717;28;20198;-77
2022/10/31 03:55:16;;;;;;;16.67;10.05;;;15.80;99.90;;;;;;5032149;28;20587;-77
2022/10/31 03:57:48;;;;;;;15.13;9.93;;;15.80;99.90;;;;;;5049853;28;20194;-77
2022/10/31 04:00:17;;;;;;;13.60;9.05;;;15.90;99.90;;;;;;5051415;28;20202;-77
2022/10/31 04:02:54;;;;;;;13.55;9.68;;;15.90;99.90;;;;;;5052181;28;20683;-77
2022/10/31 04:05:24;;;;;;;15.68;9.32;;;15.90;99.90;;;;;;5051866;28;20206;-77
2022/10/31 04:07:56;;;;;;;14.65;9.75;;;16.00;99.90;;;;;;5047257;28;20202;-77
2022/10/31 04:10:26;;;;;;;16.48;9.48;;;15.90;99.90;;;;;;5050133;28;20209;-77
2022/10/31 04:12:58;;;;;;;14.15;8.82;;;15.80;99.90;;;;;;5049416;28;20206;-77
2022/10/31 04:15:33;;;;;;;19.00;9.60;;;15.70;99.90;;;;;;5046438;28;20210;-77
2022/10/31 04:18:02;;;;;;;15.73;10.63;;;15.90;99.90;;;;;;5048319;28;20210;-78
2022/10/31 04:20:35;;;;;;;13.32;9.07;;;16.00;99.90;;;;;;5044951;28;20580;-77
2022/10/31 04:23:11;;;;;;;13.60;9.70;;;16.10;99.90;;;;;;5047137;28;20206;-77
2022/10/31 04:25:39;;;;;;;14.85;10.07;;;16.00;99.90;;;;;;5050077;28;20215;-77
2022/10/31 04:28:06;;;;;;;12.35;8.77;;;16.00;99.90;;;;;;5048158;28;20206;-77
2022/10/31 04:30:34;;;;;;;12.90;9.68;;;15.90;99.90;;;;;;5058797;28;20206;-77
2022/10/31 04:33:01;;;;;;;16.45;9.82;;;15.90;99.90;;;;;;5048261;28;20198;-77
2022/10/31 04:35:29;;;;;;;11.70;9.93;;;15.90;99.90;;;;;;5049128;28;20581;-77
2022/10/31 04:37:58;;;;;;;14.98;9.60;;;15.80;99.90;;;;;;5043428;28;20206;-77
2022/10/31 04:40:37;;;;;;;13.93;9.00;;;15.50;99.90;;;;;;5044969;28;20195;-77
2022/10/31 04:43:16;;;;;;;11.10;8.43;;;15.60;99.90;;;;;;5045947;28;20194;-77
2022/10/31 04:45:45;;;;;;;12.05;8.45;;;15.40;99.90;;;;;;5050044;28;20660;-77
2022/10/31 04:48:14;;;;;;;13.75;8.15;;;15.30;99.90;;;;;;5047450;28;20225;-77
2022/10/31 04:50:43;;;;;;;13.50;8.63;;;15.20;99.90;;;;;;5050108;28;20203;-77
2022/10/31 04:53:12;;;;;;;14.93;8.75;;;15.30;99.90;;;;;;5049888;28;20203;-78
2022/10/31 04:56:00;;;;;;;13.48;8.63;;;15.30;99.90;;;;;;5044957;28;20206;-77
2022/10/31 04:58:38;;;;;;;12.18;8.55;;;15.20;99.90;;;;;;5049552;28;20201;-77
2022/10/31 05:01:09;;;;;;;12.40;8.52;;;15.10;99.90;;;;;;5051077;28;20203;-80
2022/10/31 05:03:39;;;;;;;11.85;9.55;;;15.10;99.90;;;;;;5044389;28;20211;-79
2022/10/31 05:06:06;;;;;;;13.38;8.93;;;15.10;99.90;;;;;;5059758;28;20199;-80
2022/10/31 05:08:35;;;;;;;11.68;8.55;;;15.00;99.90;;;;;;5047633;28;20219;-80
2022/10/31 05:11:06;;;;;;;14.52;8.98;;;15.00;99.90;;;;;;5055699;28;20206;-80
2022/10/31 05:13:34;;;;;;;15.43;10.68;;;14.90;99.90;;;;;;5055554;28;20210;-80
2022/10/31 05:16:14;;;;;;;15.20;9.55;;;14.60;99.90;;;;;;5049228;28;20202;-80
2022/10/31 05:18:41;;;;;;;14.95;9.73;;;14.40;99.90;;;;;;5055990;28;20190;-80
2022/10/31 05:21:27;;;;;;;11.98;9.60;;;14.20;99.90;;;;;;5061328;28;20213;-79
2022/10/31 05:24:01;;;;;;;14.82;10.32;;;14.20;99.90;;;;;;5054643;28;20231;-80
2022/10/31 05:26:29;;;;;;;14.95;10.02;;;14.30;99.90;;;;;;5056418;28;20190;-80
2022/10/31 05:28:57;;;;;;;15.55;9.55;;;14.50;99.90;;;;;;5039382;28;20210;-80
2022/10/31 05:31:24;;;;;;;16.02;10.02;;;14.70;99.90;;;;;;5044540;28;20206;-80
2022/10/31 05:33:53;;;;;;;17.92;9.88;;;14.80;99.90;;;;;;5048294;28;20217;-79
2022/10/31 05:36:39;;;;;;;13.93;9.50;;;14.80;99.90;;;;;;5053609;28;20562;-80
2022/10/31 05:39:18;;;;;;;14.63;9.15;;;14.70;99.90;;;;;;5046644;28;20702;-79
2022/10/31 05:41:56;;;;;;;11.70;9.50;;;14.80;99.90;;;;;;5046433;28;20690;-80
2022/10/31 05:44:27;;;;;;;15.38;9.90;;;15.00;99.90;;;;;;5046793;28;20206;-79
2022/10/31 05:47:05;;;;;;;14.18;10.25;;;15.10;99.90;;;;;;5050766;28;20201;-80
2022/10/31 05:50:11;;;;;;;13.73;9.57;;;15.00;99.90;;;;;;5015002;28;20192;-80
2022/10/31 05:52:56;;;;;;;17.58;10.75;;;15.00;99.90;;;;;;5017732;28;20203;-81
2022/10/31 05:55:33;;;;;;;17.02;11.32;;;14.90;99.90;;;;;;5032019;28;20202;-80
2022/10/31 05:58:15;;;;;;;15.00;9.98;;;15.00;99.90;;;;;;5035179;28;20186;-80
2022/10/31 06:00:50;;;;;;;16.48;10.60;;;15.00;99.90;;;;;;5051435;28;20198;-80
2022/10/31 06:03:17;;;;;;;13.48;9.65;;;14.90;99.90;;;;;;5043134;28;20205;-80
2022/10/31 06:05:51;;;;;;;13.60;10.18;;;14.80;99.90;;;;;;5049998;28;20661;-80
2022/10/31 06:08:18;;;;;;;14.85;9.98;;;14.70;99.90;;;;;;5037173;28;20203;-80
2022/10/31 06:10:49;;;;;;;13.73;10.15;;;14.60;99.90;;;;;;5047801;28;20203;-80
2022/10/31 06:13:23;;;;;;;11.95;9.32;;;14.70;99.90;;;;;;5034241;28;20218;-79
2022/10/31 06:16:31;;;;;;;14.20;9.40;;;14.80;99.90;;;;;;5034656;28;20218;-79
2022/10/31 06:19:04;;;;;;;14.57;9.70;;;14.70;99.90;;;;;;5044797;28;20199;-80
2022/10/31 06:21:32;;;;;;;13.85;9.75;;;14.60;99.90;;;;;;5036767;28;20190;-80
2022/10/31 06:24:05;;;;;;;15.02;9.63;;;14.60;99.90;;;;;;5051234;28;20218;-80
2022/10/31 06:27:24;;;;;;;16.75;10.05;;;14.60;99.90;;;;;;5047912;28;20210;-80
2022/10/31 06:29:52;;;;;;;15.02;9.93;;;14.70;99.90;;;;;;5054394;28;20202;-80
2022/10/31 06:32:32;;;;;;;13.70;9.77;;;14.70;99.90;;;;;;5049607;28;20205;-80
2022/10/31 06:34:59;;;;;;;17.77;10.82;;;14.90;99.90;;;;;;5048554;28;20217;-80
2022/10/31 06:37:39;;;;;;;13.73;9.05;;;15.00;99.90;;;;;;5048538;28;20217;-80
2022/10/31 06:40:20;;;;;;;15.32;10.65;;;15.20;99.90;;;;;;5043842;28;20190;-80
2022/10/31 06:43:11;;;;;;;15.05;10.80;;;15.40;99.90;;;;;;5039399;28;20723;-80
2022/10/31 06:45:40;;;;;;;13.98;10.85;;;15.30;99.90;;;;;;5036746;28;20629;-79
2022/10/31 06:48:07;;;;;;;18.02;11.32;;;15.10;99.90;;;;;;5041150;28;20198;-80
2022/10/31 06:50:44;;;;;;;17.08;10.98;;;15.10;99.90;;;;;;5036856;28;20195;-80
2022/10/31 06:53:14;;;;;;;14.55;10.18;;;14.90;99.90;;;;;;5040574;28;20191;-80
2022/10/31 06:55:42;;;;;;;17.92;10.70;;;14.90;99.90;;;;;;5037979;28;20192;-80
2022/10/31 06:58:11;;;;;;;17.98;11.05;;;14.90;99.90;;;;;;5040509;28;20211;-80
2022/10/31 07:00:41;;;;;;;16.98;11.40;;;14.80;99.90;;;;;;5043825;28;20209;-80
2022/10/31 07:03:11;;;;;;;16.75;10.43;;;14.80;99.90;;;;;;5048971;28;20199;-80
2022/10/31 07:05:39;;;;;;;16.25;11.00;;;14.90;99.90;;;;;;5040187;28;20202;-80
2022/10/31 07:08:14;;;;;;;17.98;10.88;;;15.00;99.90;;;;;;5041722;28;20205;-80
2022/10/31 07:10:43;;;;;;;14.43;10.82;;;15.00;99.90;;;;;;5044975;28;20206;-80
2022/10/31 07:13:14;;;;;;;17.80;11.70;;;15.00;99.90;;;;;;5048214;28;20195;-80
2022/10/31 07:15:47;;;;;;;14.23;10.73;;;14.90;99.90;;;;;;5037026;28;20683;-80
2022/10/31 07:18:14;;;;;;;21.60;11.73;;;14.90;99.90;;;;;;5045293;28;20217;-80
2022/10/31 07:20:42;;;;;;;15.07;10.90;;;15.00;99.90;;;;;;5049156;28;20581;-80
2022/10/31 07:23:10;;;;;;;15.70;11.32;;;14.90;99.90;;;;;;5046395;28;20213;-80
2022/10/31 07:25:38;;;;;;;14.65;10.80;;;14.90;99.90;;;;;;5039821;28;20194;-79
2022/10/31 07:28:06;;;;;;;17.40;11.70;;;14.80;99.90;;;;;;5049357;28;20198;-80
2022/10/31 07:30:35;;;;;;;17.08;11.73;;;14.80;99.90;;;;;;5040943;28;20660;-80
2022/10/31 07:33:02;;;;;;;16.33;11.35;;;15.00;99.90;;;;;;5044367;28;20202;-79
2022/10/31 07:35:46;;;;;;;19.58;11.70;;;15.00;99.90;;;;;;5146545;27;20673;-79
2022/10/31 07:38:16;;;;;;;16.00;12.00;;;15.10;99.90;;;;;;5101339;27;20195;-79
2022/10/31 07:40:44;;;;;;;17.55;11.60;;;15.10;99.90;;;;;;5114255;28;20199;-79
2022/10/31 07:43:12;;;;;;;16.42;11.23;;;15.10;99.90;;;;;;5122413;27;20207;-79
2022/10/31 07:45:58;;;;;;;16.27;11.10;;;15.10;99.90;;;;;;5140964;27;20190;-79
2022/10/31 07:49:01;;;;;;;15.65;11.40;;;15.20;99.90;;;;;;5076548;28;20206;-77
2022/10/31 07:51:48;;;;;;;17.95;11.80;;;15.30;99.90;;;;;;5151031;27;20217;-78
2022/10/31 07:54:41;;;;;;;20.98;11.50;;;15.50;99.90;;;;;;5152437;27;20219;-78
2022/10/31 07:57:09;;;;;;;16.13;11.65;;;15.50;99.90;;;;;;5137457;27;20555;-78
2022/10/31 07:59:38;;;;;;;19.52;11.75;;;15.60;99.90;;;;;;5137404;27;20210;-78
2022/10/31 08:02:09;;;;;;;18.83;11.48;;;15.60;99.90;;;;;;5137136;27;20198;-78
2022/10/31 08:04:55;;;;;;;16.10;10.70;;;15.70;99.90;;;;;;5172806;27;20213;-78
2022/10/31 08:07:42;;;;;;;19.80;12.07;;;15.70;99.90;;;;;;5165661;27;20198;-78
2022/10/31 08:10:21;;;;;;;15.95;10.88;;;15.70;99.90;;;;;;5137101;27;20217;-78
2022/10/31 08:12:55;;;;;;;16.85;11.88;;;15.80;99.90;;;;;;5133175;28;20191;-78
2022/10/31 08:15:33;;;;;;;15.95;11.73;;;15.70;99.90;;;;;;5117258;27;20222;-78
2022/10/31 08:18:01;;;;;;;19.08;13.02;;;15.70;99.90;;;;;;5136755;27;20195;-78
2022/10/31 08:20:29;;;;;;;18.92;13.43;;;15.70;99.90;;;;;;5137180;27;20203;-78
2022/10/31 08:23:03;;;;;;;17.13;12.52;;;15.70;99.90;;;;;;5136084;27;20206;-78
2022/10/31 08:25:32;;;;;;;18.27;11.70;;;15.90;99.90;;;;;;5132293;27;20194;-78
2022/10/31 08:28:02;;;;;;;18.38;12.95;;;15.90;99.90;;;;;;5132557;27;20206;-78
2022/10/31 08:30:32;;;;;;;17.98;12.75;;;15.90;99.90;;;;;;5133511;27;20190;-78
2022/10/31 08:33:20;;;;;;;16.00;11.73;;;15.80;99.90;;;;;;5151284;27;20311;-77
2022/10/31 08:36:17;;;;;;;16.48;12.82;;;15.80;99.90;;;;;;5059352;27;20202;-78
2022/10/31 08:39:08;;;;;;;26.13;16.63;;;15.80;99.90;;;;;;5141698;27;20191;-78
2022/10/31 08:41:36;;;;;;;17.90;12.85;;;15.80;99.90;;;;;;5128861;27;20552;-78
2022/10/31 08:44:04;;;;;;;18.95;12.65;;;16.00;99.90;;;;;;5125624;27;20224;-78
2022/10/31 08:46:33;;;;;;;17.15;12.85;;;16.10;99.90;;;;;;5121642;27;20200;-79
2022/10/31 08:49:22;;;;;;;17.35;12.65;;;16.30;99.90;;;;;;5119339;27;20195;-78
2022/10/31 08:51:50;;;;;;;22.00;13.32;;;16.50;99.90;;;;;;5119910;27;20672;-79
2022/10/31 08:54:19;;;;;;;21.15;13.73;;;16.60;99.90;;;;;;5119125;27;20219;-79
2022/10/31 08:57:06;;;;;;;20.42;13.43;;;16.50;99.90;;;;;;5138251;27;20187;-79
2022/10/31 08:59:41;;;;;;;20.48;13.52;;;16.60;99.90;;;;;;5154232;27;20198;-79
2022/10/31 09:02:21;;;;;;;19.58;13.18;;;16.70;99.90;;;;;;5145186;27;20200;-79
2022/10/31 09:04:51;;;;;;;17.33;12.70;;;16.70;99.90;;;;;;5119442;27;20208;-79
2022/10/31 09:07:18;;;;;;;22.13;14.00;;;16.80;99.90;;;;;;5119099;27;20195;-79
2022/10/31 09:09:47;;;;;;;18.35;13.73;;;16.90;99.90;;;;;;5118546;27;20207;-79
2022/10/31 09:12:15;;;;;;;21.23;14.45;;;17.10;99.90;;;;;;5120095;27;20195;-79
2022/10/31 09:15:09;;;;;;;23.85;14.63;;;17.10;99.90;;;;;;5137314;27;20204;-79
2022/10/31 09:17:57;;;;;;;20.52;14.52;;;17.20;99.90;;;;;;5137386;27;20196;-79
2022/10/31 09:20:32;;;;;;;23.98;14.35;;;17.30;99.90;;;;;;5119280;27;20195;-79
2022/10/31 09:23:01;;;;;;;22.25;13.63;;;17.20;99.90;;;;;;5119673;27;20195;-79
2022/10/31 09:25:32;;;;;;;23.35;14.50;;;17.30;99.90;;;;;;5119139;27;20195;-79
2022/10/31 09:28:24;;;;;;;19.15;13.75;;;17.30;99.90;;;;;;5137588;27;20222;-79
2022/10/31 09:30:53;;;;;;;22.10;13.50;;;17.40;99.90;;;;;;5117936;27;20577;-79
2022/10/31 09:33:50;;;;;;;20.23;13.55;;;17.60;99.90;;;;;;5116180;27;20234;-79
2022/10/31 09:36:45;;;;;;;21.33;13.70;;;17.70;99.90;;;;;;5117707;27;20191;-79
2022/10/31 09:39:20;;;;;;;20.73;13.02;;;17.70;99.90;;;;;;5117754;27;20211;-79
2022/10/31 09:42:17;;;;;;;19.83;13.60;;;17.90;99.90;;;;;;5118183;27;20199;-79
2022/10/31 09:44:52;;;;;;;22.70;14.10;;;18.00;99.90;;;;;;5115136;27;20211;-79
2022/10/31 09:47:51;;;;;;;22.25;14.02;;;18.00;99.90;;;;;;5137384;27;20199;-79
2022/10/31 09:50:40;;;;;;;23.13;12.85;;;18.10;99.90;;;;;;5137330;27;20188;-79
2022/10/31 09:53:49;;;;;;;23.27;14.10;;;18.20;99.90;;;;;;5021657;28;20223;-79
2022/10/31 09:56:22;;;;;;;21.52;14.75;;;18.10;99.90;;;;;;5098552;27;20211;-79
2022/10/31 09:58:55;;;;;;;20.75;14.27;;;17.80;99.90;;;;;;5104728;27;20214;-79
2022/10/31 10:01:35;;;;;;;21.83;14.32;;;17.70;99.90;;;;;;5111931;27;20187;-78
2022/10/31 10:04:12;;;;;;;21.02;13.43;;;18.00;99.90;;;;;;5120200;27;20707;-79
2022/10/31 10:07:21;;;;;;;22.90;13.90;;;18.10;99.90;;;;;;5117836;27;20553;-79
2022/10/31 10:10:16;;;;;;;25.02;15.52;;;18.20;99.90;;;;;;5141092;27;20199;-79
2022/10/31 10:13:10;;;;;;;19.95;14.32;;;18.20;99.90;;;;;;5137406;27;20204;-79
2022/10/31 10:15:52;;;;;;;25.55;18.90;;;17.90;99.90;;;;;;5116873;27;20215;-79
2022/10/31 10:18:29;;;;;;;21.10;14.98;;;17.70;99.90;;;;;;5136021;27;20194;-79
2022/10/31 10:21:10;;;;;;;24.25;14.52;;;17.90;99.90;;;;;;5116343;27;20199;-79
2022/10/31 10:23:52;;;;;;;23.70;14.65;;;17.90;99.90;;;;;;5117083;27;20222;-79
2022/10/31 10:26:28;;;;;;;20.75;15.10;;;18.00;99.90;;;;;;5133630;27;20184;-79
2022/10/31 10:29:02;;;;;;;23.80;15.63;;;17.90;99.90;;;;;;5115137;27;20195;-80
2022/10/31 10:32:06;;;;;;;24.98;14.63;;;18.00;99.90;;;;;;5134624;27;20187;-80
2022/10/31 10:35:11;;;;;;;25.60;15.43;;;18.20;99.90;;;;;;5128492;27;20239;-80
2022/10/31 10:38:29;;;;;;;24.60;15.07;;;18.10;99.90;;;;;;5104908;27;20196;-80
2022/10/31 10:41:29;;;;;;;24.15;15.57;;;18.10;99.90;;;;;;5127321;27;20196;-80
2022/10/31 10:48:34;;;;;;;20.17;12.93;;;18.40;99.90;;;;;;5098159;27;20199;-80
2022/10/31 10:51:03;;;;;;;21.23;13.95;;;18.80;99.90;;;;;;5114991;27;20684;-80
2022/10/31 10:53:59;;;;;;;21.50;13.90;;;19.00;99.90;;;;;;5109819;27;20222;-81
2022/10/31 10:56:39;;;;;;;19.58;13.30;;;18.90;99.90;;;;;;5108180;28;20579;-80
2022/10/31 10:59:11;;;;;;;22.83;14.15;;;19.10;99.90;;;;;;5113018;27;20210;-80
2022/10/31 11:01:41;;;;;;;23.02;14.43;;;19.40;99.90;;;;;;5105566;28;20210;-81
2022/10/31 11:04:31;;;;;;;23.33;14.10;;;19.30;99.90;;;;;;5131817;27;20219;-80
2022/10/31 11:07:01;;;;;;;25.88;14.20;;;19.40;99.90;;;;;;5133735;27;20194;-80
2022/10/31 11:09:29;;;;;;;21.02;14.43;;;19.40;99.90;;;;;;5109610;27;20192;-80
2022/10/31 11:11:57;;;;;;;22.95;13.40;;;19.20;99.90;;;;;;5132327;27;20200;-80
2022/10/31 11:14:25;;;;;;;22.15;15.25;;;19.10;99.90;;;;;;5109088;27;20218;-79
2022/10/31 11:17:07;;;;;;;22.27;14.40;;;19.10;99.90;;;;;;5129137;27;20703;-81
2022/10/31 11:19:36;;;;;;;26.83;14.88;;;19.10;99.90;;;;;;5116213;27;20203;-80
2022/10/31 11:22:08;;;;;;;22.90;14.85;;;19.20;99.90;;;;;;5134738;27;20188;-80
2022/10/31 11:24:40;;;;;;;25.55;14.60;;;19.10;99.90;;;;;;5116293;27;20231;-80
2022/10/31 11:27:16;;;;;;;21.73;14.10;;;19.10;99.90;;;;;;5135037;27;20164;-80
2022/10/31 11:29:44;;;;;;;23.92;15.75;;;19.00;99.90;;;;;;5116482;27;20199;-80
2022/10/31 11:32:21;;;;;;;22.10;15.05;;;18.90;99.90;;;;;;5096102;28;20223;-80
2022/10/31 11:34:54;;;;;;;21.65;14.70;;;18.90;99.90;;;;;;5095942;28;20220;-80
2022/10/31 11:37:24;;;;;;;21.13;14.55;;;18.80;99.90;;;;;;5116533;27;20211;-80
2022/10/31 11:39:54;;;;;;;25.40;14.27;;;18.60;99.90;;;;;;5132858;27;20206;-80
2022/10/31 11:42:24;;;;;;;25.50;15.55;;;18.70;99.90;;;;;;5116248;28;20199;-80
2022/10/31 11:44:53;;;;;;;21.27;13.93;;;18.80;99.90;;;;;;5116353;28;20574;-80
2022/10/31 11:47:27;;;;;;;24.88;14.48;;;18.90;99.90;;;;;;5116318;28;20714;-80
2022/10/31 11:49:57;;;;;;;25.52;14.55;;;18.70;99.90;;;;;;5116175;28;20203;-80
2022/10/31 11:52:26;;;;;;;23.88;14.07;;;18.90;99.90;;;;;;5116014;28;20199;-80
2022/10/31 11:54:56;;;;;;;24.38;14.23;;;19.00;99.90;;;;;;5116237;28;20220;-80
2022/10/31 11:57:25;;;;;;;26.42;14.13;;;18.90;99.90;;;;;;5115728;28;20223;-80
2022/10/31 11:59:54;;;;;;;24.08;14.18;;;19.00;99.90;;;;;;5116088;28;20203;-80
2022/10/31 12:02:22;;;;;;;22.13;13.25;;;19.10;99.90;;;;;;5115737;28;20196;-80
2022/10/31 12:04:59;;;;;;;21.92;12.95;;;19.30;99.90;;;;;;5115189;28;20223;-80
2022/10/31 12:07:26;;;;;;;20.73;12.68;;;19.40;99.90;;;;;;5108682;28;20192;-80
2022/10/31 12:09:54;;;;;;;20.60;12.63;;;19.20;99.90;;;;;;5116024;28;20556;-80
2022/10/31 12:12:49;;;;;;;20.52;11.75;;;19.20;99.90;;;;;;5115698;28;20203;-80
2022/10/31 12:15:30;;;;;;;18.48;10.85;;;19.20;99.90;;;;;;5113138;28;20219;-80
2022/10/31 12:18:13;;;;;;;16.55;10.77;;;19.20;99.90;;;;;;5115002;28;20196;-80
2022/10/31 12:20:54;;;;;;;16.30;9.63;;;19.40;99.90;;;;;;5110718;27;20212;-80
2022/10/31 12:23:52;;;;;;;17.58;10.23;;;19.40;99.90;;;;;;5128676;27;20198;-80
2022/10/31 12:26:24;;;;;;;18.35;10.80;;;19.80;99.90;;;;;;5117034;27;20192;-80
2022/10/31 12:29:16;;;;;;;17.67;10.65;;;19.70;99.90;;;;;;5129243;27;20192;-81
2022/10/31 12:31:54;;;;;;;15.60;11.00;;;20.10;99.90;;;;;;5118665;27;20637;-80
2022/10/31 12:34:39;;;;;;;12.20;9.15;;;20.20;99.90;;;;;;5115113;27;20258;-79
2022/10/31 12:37:20;;;;;;;16.52;10.27;;;20.50;99.90;;;;;;5114982;27;20214;-80
2022/10/31 12:39:57;;;;;;;15.57;10.10;;;20.50;99.90;;;;;;5120334;27;20214;-80
2022/10/31 12:43:08;;;;;;;15.15;9.82;;;20.90;99.90;;;;;;5115032;27;20199;-79
2022/10/31 12:46:13;;;;;;;15.15;9.40;;;20.90;99.90;;;;;;5113644;27;20204;-79
2022/10/31 12:49:19;;;;;;;13.95;8.82;;;21.00;99.90;;;;;;5098502;27;20199;-80
2022/10/31 12:51:57;;;;;;;12.38;8.48;;;21.40;99.90;;;;;;5112594;27;20200;-81
2022/10/31 12:55:04;;;;;;;12.05;8.43;;;21.70;99.90;;;;;;5113211;27;20222;-81
2022/10/31 12:57:37;;;;;;;13.57;8.55;;;21.30;99.90;;;;;;5111003;27;20214;-80
2022/10/31 13:00:12;;;;;;;14.45;8.57;;;21.50;99.90;;;;;;5117754;27;20207;-81
2022/10/31 13:02:43;;;;;;;10.98;8.30;;;22.30;99.90;;;;;;5118011;27;20191;-80
2022/10/31 13:05:18;;;;;;;14.00;8.30;;;21.70;99.90;;;;;;5135994;27;20583;-81
2022/10/31 13:07:51;;;;;;;11.63;8.02;;;22.50;99.90;;;;;;5116980;27;20237;-80
2022/10/31 13:10:23;;;;;;;15.02;8.63;;;22.70;99.90;;;;;;5116216;27;20192;-80
2022/10/31 13:13:19;;;;;;;14.02;8.15;;;22.60;99.50;;;;;;5117099;27;20759;-80
2022/10/31 13:15:51;;;;;;;13.45;7.53;;;22.90;99.40;;;;;;5108478;27;20218;-79
2022/10/31 13:18:27;;;;;;;13.57;8.73;;;22.90;98.80;;;;;;5131546;27;20176;-79